Kennewick — WDF6991 — position and weather

sailwx.info

Track history (hours):
 
Tides and Currents Weather Stations Pressure Air Temp Water Temp Dewpoint Dewpoint Depression Visibility Wind Speed Wind Dir Waves Ship Positions

Kennewick

Owner: WASHINGTON, STATE OF; Department of Transportation, Olympia, WA. More information available from US FCC via Universal Licensing System and Coast Guard Vessel Documentation Center.

Last reported at 2018-Jul-22 04:17 UTC. Time now 2018-Jul-22 04:50 UTC.
Position N 48°09' W 122°40'.

Length 86 m; draft 3 m.

Type: Passenger vessel. MMSI: 367479990.

Date/timePositionNaut miles runAvg speedWind from/ knotsBaromVisibWave heightAir tempDewpointWater temp
2018-Jul-22 04:17N 48°09' W 122°40'311.1
2018-Jul-22 04:00N 48°07' W 122°44'1 1.0
2018-Jul-22 03:30N 48°07' W 122°44'4 7.0
2018-Jul-22 02:58N 48°10' W 122°40'4 9.6
2018-Jul-22 02:30N 48°07' W 122°46'2 4.5
2018-Jul-22 02:01N 48°08' W 122°43'2 3.9
2018-Jul-22 01:26N 48°09' W 122°40'4 9.9
2018-Jul-22 01:00N 48°07' W 122°45'2 3.6
2018-Jul-22 00:28N 48°08' W 122°43'2 3.9
2018-Jul-21 23:53N 48°09' W 122°40'411.4
2018-Jul-21 23:30N 48°07' W 122°45'0 0.3
2018-Jul-21 22:59N 48°06' W 122°45'5 9.5
2018-Jul-21 22:30N 48°10' W 122°40'4 6.3
2018-Jul-21 21:47N 48°07' W 122°45'1 2.5
2018-Jul-21 21:19N 48°07' W 122°44'1 1.1
2018-Jul-21 20:13N 48°07' W 122°46'1 1.9
2018-Jul-21 19:53N 48°07' W 122°45'1 0.3
2018-Jul-21 18:20N 48°07' W 122°44'1 0.0
2018-Jul-21 02:08N 48°06' W 122°45'211.3
2018-Jul-21 01:56N 48°08' W 122°42'2 3.3
2018-Jul-21 01:25N 48°09' W 122°40'4 0.1
2018-Jul-19 16:53N 48°06' W 122°45'4 0.2
2018-Jul-18 19:13N 48°09' W 122°40'3 0.2
2018-Jul-18 05:09N 48°07' W 122°44'  
2018-Jul-15 22:55N 48°07' W 122°44'  
Track history (hours):
 
Tides and Currents Weather Stations Pressure Air Temp Water Temp Dewpoint Dewpoint Depression Visibility Wind Speed Wind Dir Waves Ship Positions

Kennewick

Owner: WASHINGTON, STATE OF; Department of Transportation, Olympia, WA. More information available from US FCC via Universal Licensing System and Coast Guard Vessel Documentation Center.

Last reported at 2018-Jul-22 04:17 UTC. Time now 2018-Jul-22 04:50 UTC.
Position N 48°09' W 122°40'.

Length 86 m; draft 3 m.

Type: Passenger vessel. MMSI: 367479990.

Date/timePositionNaut miles runAvg speedWind from/ knotsBaromVisibWave heightAir tempDewpointWater temp
2018-Jul-22 04:17N 48°09' W 122°40'311.1
2018-Jul-22 04:00N 48°07' W 122°44'1 1.0
2018-Jul-22 03:30N 48°07' W 122°44'4 7.0
2018-Jul-22 02:58N 48°10' W 122°40'4 9.6
2018-Jul-22 02:30N 48°07' W 122°46'2 4.5
2018-Jul-22 02:01N 48°08' W 122°43'2 3.9
2018-Jul-22 01:26N 48°09' W 122°40'4 9.9
2018-Jul-22 01:00N 48°07' W 122°45'2 3.6
2018-Jul-22 00:28N 48°08' W 122°43'2 3.9
2018-Jul-21 23:53N 48°09' W 122°40'411.4
2018-Jul-21 23:30N 48°07' W 122°45'0 0.3
2018-Jul-21 22:59N 48°06' W 122°45'5 9.5
2018-Jul-21 22:30N 48°10' W 122°40'4 6.3
2018-Jul-21 21:47N 48°07' W 122°45'1 2.5
2018-Jul-21 21:19N 48°07' W 122°44'1 1.1
2018-Jul-21 20:13N 48°07' W 122°46'1 1.9
2018-Jul-21 19:53N 48°07' W 122°45'1 0.3
2018-Jul-21 18:20N 48°07' W 122°44'1 0.0
2018-Jul-21 02:08N 48°06' W 122°45'211.3
2018-Jul-21 01:56N 48°08' W 122°42'2 3.3
2018-Jul-21 01:25N 48°09' W 122°40'4 0.1
2018-Jul-19 16:53N 48°06' W 122°45'4 0.2
2018-Jul-18 19:13N 48°09' W 122°40'3 0.2
2018-Jul-18 05:09N 48°07' W 122°44'  
2018-Jul-15 22:55N 48°07' W 122°44'  

Dump ship's entire track history